Tiempo atmosférico en la estación meteorológica de Bardenas Reales, Base Aérea, Navarra (295 m.)



Fecha
DESCASC
Temp. máxima en grados centígrados (hora)
DESCASC
Temp. mínima en grados centígrados (hora)
DESCASC
Temp. media en grados centígrados
DESCASC
Racha de viento máxima en m/sg (hora)
DESCASC
Velocidad máxima media en intervalos de 10 minutos(hora)
DESCASC
Precipitaciones diarias en mm
DESCASC
Precipitaciones de 00:00 a 06:00 en mm
DESCASC
Precipitaciones de 06:00 a 12:00 en mm
DESCASC
Precipitaciones de 12:00 a 18:00 en mm
DESCASC
Precipitaciones de 18:00 a 24:00 en mm
DESCASC
16-06-2019 30 (17:30) 10.7 (07:00) 20.3 7.78 (01:40) 5.83 (02:00) 0 0 0 0 0
15-06-2019 24.9 (17:10) 12.6 (06:50) 18.8 12.5 (00:30) 9.17 (00:30) 0 0 0 0 0
14-06-2019 29.5 (19:30) 13.6 (06:50) 21.6 11.39 (23:40) 8.61 (23:10) 0 0 0 0 0
13-06-2019 28.4 (17:30) 11.8 (00:00) 20.1 17.22 (16:00) 11.67 (16:30) 0 0 0 0 0
12-06-2019 23.6 (16:40) 5.8 (00:00) 14.7 7.5 (14:50) 5.83 (22:50) 0 0 0 0 0
11-06-2019 18.5 (16:30) 10 (00:00) 14.3 16.39 (18:50) 11.94 (18:50) 1 0.2 0.6 0.2 0
10-06-2019 20 (17:20) 12.5 (00:00) 16.3 15.83 (08:40) 11.39 (08:40) 0 0 0 0 0
09-06-2019 29.6 (16:40) 14.5 (00:00) 22.1 15.83 (20:30) 11.67 (19:00) 0 0 0 0 0
08-06-2019 27.2 (18:40) 8.5 (00:00) 17.9 10.83 (18:50) 7.5 (19:00) 0 0 0 0 0
07-06-2019 23.2 (16:00) 13.8 (00:00) 18.5 16.94 (00:40) 12.5 (00:30) 0 0 0 0 0
06-06-2019 27.4 (18:00) 9.5 (00:00) 18.4 18.33 (22:50) 13.61 (23:20) 0 0 0 0 0
05-06-2019 18.7 (18:30) 11.4 (00:00) 15.1 14.44 (12:30) 10 (08:40) 8.8 4.6 4.2 0 0
04-06-2019 33.9 (18:00) 15.1 (00:00) 24.5 16.39 (00:10) 11.94 (00:10) 0.2 0 0 0 0.2
03-06-2019 33.2 (18:50) 18 (00:00) 25.6 17.22 (23:59) 12.22 (23:59) 0 0 0 0 0
02-06-2019 34.1 (19:40) 16.8 (00:00) 25.4 10.83 (03:00) 8.06 (03:00) 0 0 0 0 0
01-06-2019 32 (18:30) 15.9 (00:00) 23.9 9.17 (13:50) 6.67 (13:10) 0 0 0 0 0
31-05-2019 30.8 (18:30) 11.5 (00:00) 21.1 8.06 (12:00) 6.39 (00:10) 0 0 0 0 0
30-05-2019 30.1 (17:20) 10.7 (00:00) 20.4 13.89 (00:30) 10 (00:10) 0 0 0 0 0
29-05-2019 20.3 (15:50) 10.8 (00:00) 15.5 18.06 (13:00) 12.5 (18:50) 0 0 0 0 0
28-05-2019 18.6 (15:00) 10.7 (00:00) 14.7 18.89 (17:10) 12.22 (17:20) 0 0 0 0 0
27-05-2019 21.6 (15:30) 12.5 (00:00) 17.1 16.94 (16:40) 12.5 (16:40) 0 0 0 0 0
26-05-2019 20.2 (16:50) 11.7 (00:00) 16 21.39 (14:00) 16.39 (14:00) 0 0 0 0 0
25-05-2019 19.7 (15:40) 12.9 (00:00) 16.3 19.72 (09:30) 14.17 (18:30) 0 0 0 0 0
24-05-2019 18.6 (15:10) 12.1 (00:00) 15.4 17.22 (18:20) 12.78 (18:20) 9 2.8 6.2 0 0
23-05-2019 26.8 (16:20) 10.3 (00:00) 18.5 11.94 (17:30) 8.89 (17:30) 0.8 0 0 0 0.8
22-05-2019 26.3 (18:30) 8.6 (00:00) 17.4 9.72 (02:30) 6.67 (02:40) 0 0 0 0 0
21-05-2019 23.1 (16:00) 7.8 (06:40) 15.5 12.22 (19:20) 9.72 (19:20) 0 0 0 0 0

Gráficas

Temp. máximas Temp. mínimas Temp. medias Precipitaciones Rachas de viento máximas Velocidades máximas media en intervalos de 10 minutos

Datos horarios

Fecha y hora oficial Temperatura (ºC) Velocidad del viento (km/h) Dirección del viento Racha (km/h) Dirección de racha Precipitación (mm) Presión (hPa) Tendencia (hPa) Humedad (%)
2019-06-19 23:00:00 20.6 14 Oeste 20 Sudoeste 0 978.5 2.4 81
2019-06-19 22:00:00 21.5 8 Sur -- -- 3.2 978.1 2 67
2019-06-19 21:00:00 27.4 13 Norte 27 Noroeste 0 976.3 -0.1 34
2019-06-19 20:00:00 28.8 18 Noroeste 26 Noroeste 0 976.1 -0.8 27
2019-06-19 19:00:00 30.7 14 Noroeste 27 Noroeste 0 976.1 -1.2 25
2019-06-19 18:00:00 30.1 8 Noroeste 32 Noroeste 0 976.4 -1.5 25
2019-06-19 17:00:00 30.6 13 Oeste 26 Oeste 0 976.9 -1.3 24
2019-06-19 16:00:00 30.3 15 Sudoeste 28 Oeste 0 977.3 -1.1 24
2019-06-19 15:00:00 28.8 8 Oeste -- -- 0 977.9 -0.5 27
2019-06-19 14:00:00 28.2 17 Sudoeste 26 Sur 0 978.2 -0.2 28
2019-06-19 13:00:00 28.6 9 Oeste 19 Oeste 0 978.4 -0.2 26
2019-06-19 12:00:00 27 6 Sur 14 Sudoeste 0 978.4 -0.5 27
2019-06-19 11:00:00 25.1 9 Sudeste 20 Este 0 978.4 -0.4 30
2019-06-19 10:00:00 23.4 16 Este 21 Este 0 978.6 0.2 30
2019-06-19 09:00:00 21.7 8 Este 15 Sudeste 0 978.9 1 33
2019-06-19 08:00:00 19.6 8 Este 11 Noroeste 0 978.8 1.2 37
2019-06-19 07:00:00 17.8 6 Norte 11 Noroeste 0 978.4 0.9 45
2019-06-19 06:00:00 17.6 4 Nordeste 15 Este 0 977.9 0.4 43
2019-06-19 05:00:00 17.6 9 Este 17 Este 0 977.6 0.3 43
2019-06-19 04:00:00 19.3 9 Este 14 Este 0 977.5 0.4 38
2019-06-19 03:00:00 20.2 5 Este 27 Este 0 977.5 1.2 35
2019-06-19 02:00:00 20.8 21 Este 38 Este 0 977.3 1.7 35
2019-06-19 01:00:00 23.4 21 Este 44 Este 0 977.1 2.9 30
2019-06-19 00:00:00 24.1 30 Este 50 Este 0 976.3 2.5 33
2019-06-18 23:00:00 25.5 26 Este 50 Este 0 975.6 2.1 37
2019-06-18 22:00:00 28.5 36 Este 57 Este 0 974.2 0.9 33
2019-06-18 21:00:00 33 18 Sudoeste 41 Sudoeste 0 973.8 0.4 13
2019-06-18 20:00:00 34.5 31 Sudoeste 45 Sudoeste 0 973.5 -0.3 11
2019-06-18 19:00:00 35 25 Sur 45 Sudeste 0 973.3 -1.2 13
2019-06-18 18:00:00 35.5 20 Sur 37 Sur 0 973.4 -1.6 13
2019-06-18 17:00:00 35.3 18 Sur -- -- 0 973.8 -2.2 13
2019-06-18 16:00:00 33.6 13 Sudeste 40 Sudeste 0 974.5 -2.3 15
2019-06-18 15:00:00 33.7 27 Sudeste 47 Sudeste 0 975 -2.5 15
2019-06-18 14:00:00 32.6 -- -- -- -- 0 976 -1.8 16
2019-06-18 13:00:00 30.7 27 Este 41 Este 0 976.8 -1.7 22
2019-06-18 12:00:00 28.1 28 Este 40 Este 0 977.5 -0.7 25
2019-06-18 11:00:00 26.6 25 Este 32 Este 0 977.8 0.3 27
2019-06-18 10:00:00 23.7 17 Este 32 Sudeste 0 978.5 0.4 32
2019-06-18 09:00:00 22.8 23 Sudeste 33 Sudeste 0 978.2 0.4 35
2019-06-18 08:00:00 21.3 24 Este 38 Este 0 977.5 -0.4 38
2019-06-18 07:00:00 20.2 21 Sudeste 40 Este 0 978.1 0.4 40
2019-06-18 06:00:00 20.8 16 Este 26 Este 0 977.8 0.1 40
2019-06-18 05:00:00 21.8 19 Este 36 Este 0 977.9 0.3 38
2019-06-18 04:00:00 22.2 25 Este 45 Este 0 977.7 0.1 40
2019-06-18 03:00:00 22.7 29 Este 48 Este 0 977.7 0.5 42
2019-06-18 02:00:00 23.6 31 Este 46 Este 0 977.6 0.8 46
2019-06-18 01:00:00 25.3 29 Este 43 Este 0 977.6 1.4 37
2019-06-18 00:00:00 26.5 21 Este 27 Este 0 977.2 1.1 30
2019-06-17 23:00:00 26.9 20 Este 28 Este 0 976.8 0.9 29
2019-06-17 22:00:00 28 14 Este 22 Este 0 976.2 0.3 24
2019-06-17 21:00:00 30.4 15 Este 24 Este 0 976.1 -0.5 18
2019-06-17 20:00:00 32.7 19 Este 33 Este 0 975.9 -1.3 13
2019-06-17 19:00:00 33.4 21 Este 35 Este 0 975.9 -2 13
2019-06-17 18:00:00 33.2 24 Este 33 Este 0 976.6 -2.3 13
2019-06-17 17:00:00 33.1 23 Este 35 Este 0 977.2 -2.6 13
2019-06-17 16:00:00 32.7 18 Este 32 Este 0 977.9 -2.7 14
2019-06-17 15:00:00 31.9 18 Este 31 Este 0 978.9 -2.5 17
2019-06-17 14:00:00 30.5 21 Este 31 Este 0 979.8 -2 23
2019-06-17 13:00:00 28.4 15 Este 24 Este 0 980.6 -1.4 28
2019-06-17 12:00:00 26.7 9 Sudeste 19 Sudeste 0 981.4 -0.9 33
2019-06-17 11:00:00 24.8 9 Sudeste 22 Sudeste 0 981.8 -0.3 38
2019-06-17 10:00:00 22.2 13 Este 18 Este 0 982 0.4 44
2019-06-17 09:00:00 20.4 13 Este 17 Este 0 982.3 1.1 51
2019-06-17 08:00:00 17.8 3 Sur 12 Sudeste 0 982.1 1.1 61
2019-06-17 07:00:00 15.4 11 Sudeste 21 Este 0 981.6 0.6 67
2019-06-17 06:00:00 17.5 18 Este 22 Este 0 981.2 0 59
2019-06-17 05:00:00 16.5 8 Nordeste 9 Nordeste 0 981 -0.4 57
2019-06-17 04:00:00 18.4 5 Nordeste 19 Este 0 981 -0.4 49
2019-06-17 03:00:00 19.4 15 Este 18 Este 0 981.2 0 47
2019-06-17 02:00:00 19.1 6 Sudeste 12 Este 0 981.4 0.6 49
2019-06-17 01:00:00 20.8 4 Sur 8 Sudeste 0 981.4 1.2 38
2019-06-17 00:00:00 22.6 6 Este 11 Este 0 981.2 1.2 31
2019-06-16 23:00:00 23.4 6 Sudeste 9 Este 0 980.8 0.8 29
2019-06-16 22:00:00 26.2 5 Sur 8 Sur 0 980.2 0.2 22
2019-06-16 21:00:00 28.8 3 Este 13 Este 0 980 -0.3 18
2019-06-16 20:00:00 29.4 7 Este 22 Nordeste 0 980 -1 15
2019-06-16 19:00:00 29.6 16 Este 25 Este 0 980 -2 16
2019-06-16 18:00:00 29.6 12 Este 25 Este 0 980.3 -2.5 16
2019-06-16 17:00:00 29.5 8 Este 22 Nordeste 0 981 -2.8 19
2019-06-16 16:00:00 28.4 13 Nordeste 27 Este 0 982 -2.6 22
2019-06-16 15:00:00 27.3 10 Nordeste 22 Este 0 982.8 -2.5 25
2019-06-16 14:00:00 26.1 9 Sudeste 22 Sudeste 0 983.8 -2.1 26
2019-06-16 13:00:00 24.4 10 Sudeste 19 Este 0 984.6 -1.5 33
2019-06-16 12:00:00 22 5 Sudeste 14 Sudeste 0 985.3 -0.8 37
2019-06-16 11:00:00 19.9 3 Sudoeste 12 Este 0 985.9 0.1 47
2019-06-16 10:00:00 17.5 4 Sudeste 10 Este 0 986.1 0.7 55
2019-06-16 09:00:00 14.9 0 Calma 5 Sur 0 986.1 0.9 64
2019-06-16 08:00:00 13.4 0 Calma 8 Sudeste 0 985.8 0.2 69
2019-06-16 07:00:00 10.7 3 Sur 7 Oeste 0 985.4 -0.2 76
2019-06-16 06:00:00 11.2 4 Oeste 8 Oeste 0 985.2 -0.7 75
2019-06-16 05:00:00 12.3 4 Sudoeste 19 Noroeste 0 985.6 -0.4 70
2019-06-16 04:00:00 12.7 11 Noroeste 16 Noroeste 0 985.6 -0.4 70
2019-06-16 03:00:00 13.4 10 Noroeste 28 Noroeste 0 985.9 0.1 68
2019-06-16 02:00:00 14.8 21 Noroeste 28 Oeste 0 986 0.6 63
2019-06-16 01:00:00 15.3 17 Oeste 23 Oeste 0 986 1.6 61
2019-06-16 00:00:00 15.9 13 Oeste 19 Oeste 0 985.8 1.9 57
2019-06-15 23:00:00 17.5 12 Noroeste 24 Noroeste 0 985.4 2.1 52
2019-06-15 22:00:00 19.5 18 Norte 33 Norte 0 984.4 1.5 42
2019-06-15 21:00:00 21.5 23 Norte 33 Norte 0 983.9 1.1 35
2019-06-15 20:00:00 23.1 22 Norte 36 Norte 0 983.3 0.6 33
2019-06-15 19:00:00 24.2 24 Norte 36 Noroeste 0 982.9 0 30
2019-06-15 18:00:00 24.8 19 Noroeste 39 Noroeste 0 982.8 -0.2 28
2019-06-15 17:00:00 24.8 20 Noroeste -- -- 0 982.7 -0.8 27
2019-06-15 16:00:00 24.3 21 Noroeste 41 Noroeste 0 982.9 -1 29
2019-06-15 15:00:00 24.2 18 Noroeste 41 Noroeste 0 983 -1.1 30
2019-06-15 14:00:00 22.7 21 Noroeste 39 Noroeste 0 983.5 -0.5 33
2019-06-15 13:00:00 21.7 22 Noroeste 34 Oeste 0 983.9 0.1 39
2019-06-15 12:00:00 19.9 19 Oeste 32 Oeste 0 984.1 0.6 44
2019-06-15 11:00:00 18.5 23 Noroeste 34 Noroeste 0 984 1 50
2019-06-15 10:00:00 16.8 19 Oeste 32 Oeste 0 983.8 1.2 59
2019-06-15 09:00:00 15.6 20 Noroeste 32 Oeste 0 983.5 1.4 64
2019-06-15 08:00:00 14.4 19 Noroeste 28 Noroeste 0 983 1.4 70
2019-06-15 07:00:00 12.8 19 Noroeste 26 Noroeste 0 982.6 1.4 77
2019-06-15 06:00:00 13 20 Noroeste 39 Oeste 0 982.1 1.3 75
2019-06-15 05:00:00 14 27 Oeste 39 Oeste 0 981.6 1.1 71
2019-06-15 04:00:00 14.4 20 Oeste 36 Noroeste 0 981.2 1.6 72
2019-06-15 03:00:00 15.1 24 Noroeste 42 Noroeste 0 980.8 2.3 70
2019-06-15 02:00:00 15.3 21 Noroeste 37 Noroeste 0 980.5 3.1 72
2019-06-15 01:00:00 15.2 26 Noroeste 45 Noroeste 0 979.6 4 73
2019-06-15 00:00:00 15.7 21 Noroeste 41 Noroeste 0 978.5 4.5 72
2019-06-14 23:00:00 16.9 27 Oeste 39 Oeste 0 977.4 4 68
2019-06-14 22:00:00 19.1 26 Noroeste 36 Noroeste 0 975.6 2.5 61
2019-06-14 21:00:00 26.4 19 Noroeste 32 Sur 0 974 0.5 37
2019-06-14 20:00:00 28.9 10 Sur 25 Sur 0 973.4 -0.5 18
2019-06-14 19:00:00 28.7 8 Este 19 Este 0 973.1 -1.5 26
2019-06-14 18:00:00 27.9 10 Nordeste 22 Este 0 973.5 -1.6 29
2019-06-14 17:00:00 26.9 11 Este 24 Este 0 973.9 -2 31
2019-06-14 16:00:00 24.9 13 Este 29 Este 0 974.6 -1.7 34
2019-06-14 15:00:00 23.6 17 Este 31 Este 0 975.1 -1.1 37
2019-06-14 14:00:00 22.2 11 Este 22 Este 0 975.9 -0.9 43
2019-06-14 13:00:00 19.8 8 Este 14 Este 0 976.3 -0.4 48
2019-06-14 12:00:00 17.2 8 Noroeste 15 Sudoeste 0 976.2 -0.4 64
2019-06-14 11:00:00 16.6 15 Oeste 25 Sudoeste 0 976.8 0.5 63
2019-06-14 10:00:00 16.5 5 Noroeste 9 Noroeste 0 976.7 0.4 65
2019-06-14 09:00:00 14.9 8 Oeste 15 Oeste 0 976.6 0.3 71
2019-06-14 08:00:00 13.9 8 Oeste 13 Oeste 0 976.3 -0.1 75
2019-06-14 07:00:00 13.6 7 Oeste 17 Noroeste 0 976.3 -0.2 76
2019-06-14 06:00:00 14.1 10 Noroeste 18 Oeste 0 976.3 -0.6 74
2019-06-14 05:00:00 14.8 9 Oeste 22 Oeste 0 976.4 -0.1 71
2019-06-14 04:00:00 15.2 7 Oeste 16 Oeste 0 976.5 0 69
2019-06-14 03:00:00 16.5 10 Oeste 21 Oeste 0 976.9 1.3 64
2019-06-14 02:00:00 18.3 16 Este 21 Este 0 976.5 1 38
2019-06-14 01:00:00 19.5 13 Este 29 Sudeste 0 976.5 2.5 37
2019-06-14 00:00:00 19.4 17 Sudeste 28 Este 0 975.6 2.5 43
2019-06-13 23:00:00 20.2 14 Este 34 Este 0 975.5 3.2 45
2019-06-13 22:00:00 22.3 23 Este 47 Este 0 974 2 36
2019-06-13 21:00:00 24.7 32 Este 54 Este 0 973.1 0.7 37
2019-06-13 20:00:00 26.1 35 Este 51 Este 0 972.3 -0.5 33
2019-06-13 19:00:00 27.1 40 Este 55 Este 0 972 -1.4 31
2019-06-13 18:00:00 26.7 39 Este 58 Este 0 972.4 -1.6 33
2019-06-13 17:00:00 27.7 40 Este 58 Este 0 972.8 -2.5 31
2019-06-13 16:00:00 26.8 40 Este 62 Este 0 973.4 -2.6 34
2019-06-13 15:00:00 26.5 37 Este 59 Este 0 974 -2.8 34
2019-06-13 14:00:00 25.1 36 Este 50 Este 0 975.3 -1.9 36
2019-06-13 13:00:00 22.6 35 Este 51 Este 0 976 -1.5 42
2019-06-13 12:00:00 21.7 37 Este 49 Este 0 976.8 -1 42
2019-06-13 11:00:00 20.2 34 Este 47 Este 0 977.2 -0.4 43
2019-06-13 10:00:00 17.8 28 Este 40 Este 0 977.5 0.3 45
2019-06-13 09:00:00 15.8 19 Sudeste 26 Sudeste 0 977.8 1 48
2019-06-13 08:00:00 14.9 5 Este 18 Sudeste 0 977.6 0.8 52
2019-06-13 07:00:00 13.3 15 Sudeste 28 Sudeste 0 977.2 0.6 57
2019-06-13 06:00:00 13.5 21 Sudeste 36 Sudeste 0 976.8 -0.3 55
2019-06-13 05:00:00 13.8 27 Sudeste 41 Este 0 976.8 -0.6 54
2019-06-13 04:00:00 13.7 15 Sudeste 30 Este 0 976.6 -0.8 57
2019-06-13 03:00:00 11.9 3 Nordeste 5 Noroeste 0 977.1 0 69
2019-06-13 02:00:00 13.4 2 Sudoeste 15 Sudeste 0 977.4 0.5 65
2019-06-13 01:00:00 15.7 8 Sudeste 18 Este 0 977.4 1.2 50
2019-06-13 00:00:00 17 15 Este 20 Este 0 977.1 1.2 41
2019-06-12 23:00:00 18.1 18 Este 27 Este 0 976.9 1.1 38
2019-06-12 22:00:00 19.1 14 Este 19 Este 0 976.2 0.2 35
2019-06-12 21:00:00 22 16 Este 23 Este 0 975.9 -0.7 27
2019-06-12 20:00:00 22.9 12 Este 23 Este 0 975.8 -1.2 24
2019-06-12 19:00:00 22.9 10 Nordeste 25 Este 0 976 -1.6 25
2019-06-12 18:00:00 22.7 13 Este 24 Este 0 976.6 -1.9 25
2019-06-12 17:00:00 22.4 13 Nordeste 26 Nordeste 0 977 -2.2 26
2019-06-12 16:00:00 22.1 8 Este 26 Este 0 977.6 -2.2 28
2019-06-12 15:00:00 20.2 13 Este 27 Este 0 978.5 -2 31
2019-06-12 14:00:00 19.9 14 Sudeste -- -- 0 979.2 -1.4 32
2019-06-12 13:00:00 18.9 9 Sudeste 25 Este 0 979.8 -1.1 35
2019-06-12 12:00:00 17.2 7 Sudeste 19 Este 0 980.5 -0.2 39
2019-06-12 11:00:00 15.8 4 Norte 14 Este 0 980.6 0.1 44
2019-06-12 10:00:00 14.1 5 Sudoeste 14 Oeste 0 980.9 0.4 53
2019-06-12 09:00:00 12.4 3 Nordeste 6 Nordeste 0 980.7 0.5 64
2019-06-12 08:00:00 8.6 3 Norte 5 Noroeste 0 980.5 0.3 78
2019-06-12 07:00:00 6.1 3 Sudeste 5 Norte 0 980.5 0.2 82
2019-06-12 06:00:00 6.1 3 Nordeste 6 Sur 0 980.2 -0.3 84
2019-06-12 05:00:00 6.4 3 Nordeste 5 Noroeste 0 980.2 -0.5 84
2019-06-12 04:00:00 6.9 5 Sudeste 7 Sudeste 0 980.3 -0.7 79
2019-06-12 03:00:00 7.9 4 Norte 10 Sudeste 0 980.5 -0.8 81
2019-06-12 02:00:00 8.4 2 Sudoeste 14 Noroeste 0 980.7 -0.8 77
2019-06-12 01:00:00 9.7 12 Noroeste 14 Noroeste 0 981 0.2 76
2019-06-12 00:00:00 10.6 0 Calma 13 Noroeste 0 981.3 0.8 69
2019-06-11 23:00:00 11.7 12 Noroeste 16 Noroeste 0 981.5 1.5 66
2019-06-11 22:00:00 13.2 13 Noroeste 35 Noroeste 0 980.8 1.1 60
2019-06-11 21:00:00 15 23 Noroeste 42 Noroeste 0 980.5 1.1 52
2019-06-11 20:00:00 15.9 30 Noroeste 49 Noroeste 0 980 0.8 47
2019-06-11 19:00:00 16.2 34 Noroeste 59 Noroeste 0 979.7 0.3 45
2019-06-11 18:00:00 17.9 29 Noroeste 50 Noroeste 0 979.4 0 41
2019-06-11 17:00:00 18.1 35 Noroeste 54 Noroeste 0 979.2 -0.3 33
2019-06-11 16:00:00 17.9 32 Noroeste 54 Noroeste 0 979.4 -0.1 40
2019-06-11 15:00:00 17.2 38 Noroeste 58 Noroeste 0 979.4 -0.2 44
2019-06-11 14:00:00 16.4 30 Noroeste 47 Noroeste 0.2 979.5 -0.2 47
2019-06-11 13:00:00 15.7 24 Noroeste 36 Noroeste 0 979.5 -0.3 50
2019-06-11 12:00:00 15.1 28 Noroeste 41 Noroeste 0 979.6 0.2 52
2019-06-11 11:00:00 13.8 20 Noroeste 32 Oeste 0 979.7 0.3 66
2019-06-11 10:00:00 12.2 19 Noroeste 30 Noroeste 0 979.8 0.6 79
2019-06-11 09:00:00 11 15 Oeste 23 Noroeste 0.2 979.4 0 88
2019-06-11 08:00:00 10.4 14 Noroeste 24 Noroeste 0.4 979.4 -0.4 89
2019-06-11 07:00:00 10.3 19 Noroeste 31 Oeste 0 979.2 -0.7 86
2019-06-11 06:00:00 10 18 Noroeste 33 Noroeste 0.2 979.4 -0.6 87
2019-06-11 05:00:00 10.6 22 Noroeste 36 Noroeste 0 979.8 -0.4 80
2019-06-11 04:00:00 11.6 22 Noroeste 33 Noroeste 0 979.9 -0.1 70
2019-06-11 03:00:00 12.5 18 Noroeste 34 Oeste 0 980 -0.5 62
2019-06-11 02:00:00 12.7 18 Noroeste 27 Noroeste 0 980.2 -0.7 57
2019-06-11 01:00:00 13.1 17 Noroeste 33 Noroeste 0 980 0 60
2019-06-11 00:00:00 13.4 27 Noroeste 44 Noroeste 0 980.5 0.6 58
2019-06-10 23:00:00 14.1 28 Noroeste 36 Noroeste 0 980.9 1.1 54
2019-06-10 22:00:00 15.2 24 Noroeste 42 Noroeste 0 980 0.6 47
2019-06-10 21:00:00 16 34 Noroeste 50 Noroeste 0 979.9 0.1 43
2019-06-10 20:00:00 16.7 37 Noroeste 53 Noroeste 0 979.8 -0.5 44
2019-06-10 19:00:00 17.8 35 Noroeste 51 Noroeste 0 979.4 -1.3 41
2019-06-10 18:00:00 19.1 35 Noroeste 54 Noroeste 0 979.8 -1.6 38
2019-06-10 17:00:00 19.7 36 Noroeste 54 Noroeste 0 980.3 -1.6 39
2019-06-10 16:00:00 19.6 34 Noroeste 53 Noroeste 0 980.7 -1.7 41
2019-06-10 15:00:00 19.4 33 Noroeste 50 Noroeste 0 981.4 -1.2 42
2019-06-10 14:00:00 18.6 32 Noroeste 53 Noroeste 0 981.9 -0.6 44
2019-06-10 13:00:00 17.8 35 Noroeste 51 Oeste 0 982.4 -0.4 48
2019-06-10 12:00:00 16.2 35 Noroeste 56 Oeste 0 982.6 0 55
2019-06-10 11:00:00 16.1 36 Noroeste 52 Noroeste 0 982.5 0.2 55
2019-06-10 10:00:00 14.9 33 Noroeste 49 Noroeste 0 982.8 0.4 60
2019-06-10 09:00:00 14.8 36 Noroeste 57 Noroeste 0 982.6 0.7 61
2019-06-10 08:00:00 13.7 34 Noroeste 48 Noroeste 0 982.3 0.1 65
2019-06-10 07:00:00 12.9 28 Noroeste 49 Noroeste 0 982.4 -0.4 70
2019-06-10 06:00:00 12.7 32 Noroeste 48 Noroeste 0 981.9 -1.4 73
2019-06-10 05:00:00 12.9 28 Noroeste 43 Noroeste 0 982.2 -1.1 73
2019-06-10 04:00:00 13.3 30 Noroeste 46 Noroeste 0 982.8 -0.2 73
2019-06-10 03:00:00 13.7 31 Noroeste 44 Noroeste 0 983.3 0.8 72
2019-06-10 02:00:00 14.3 30 Noroeste 50 Noroeste 0 983.3 1.2 72
2019-06-10 01:00:00 14.8 30 Noroeste 50 Noroeste 0 983 2 70
2019-06-10 00:00:00 15.4 29 Noroeste 41 Noroeste 0 982.5 2.5 69
2019-06-09 23:00:00 15.9 26 Noroeste 49 Noroeste 0 982.1 3.3 67
2019-06-09 22:00:00 16.5 35 Noroeste 48 Noroeste 0 981 3.6 68
2019-06-09 21:00:00 18.3 37 Noroeste 57 Noroeste 0 980 3.1 62
2019-06-09 20:00:00 21 40 Noroeste 54 Noroeste 0 978.8 1.6 53
2019-06-09 19:00:00 24.7 42 Noroeste 54 Noroeste 0 977.4 -0.5 43
2019-06-09 18:00:00 28.8 17 Noroeste -- -- 0 976.9 -1.7 23
2019-06-09 17:00:00 29.4 11 Noroeste 30 Nordeste 0 977.2 -2.2 22
2019-06-09 16:00:00 28.6 11 Sudeste 19 Oeste 0 977.9 -2.1 23
2019-06-09 15:00:00 27.5 10 Nordeste 20 Este 0 978.6 -2.1 23
2019-06-09 14:00:00 26.6 10 Este 19 Nordeste 0 979.4 -1.6 26
2019-06-09 13:00:00 25.6 7 Norte 16 Norte 0 980 -1.5 26
2019-06-09 12:00:00 23.3 5 Norte 12 Sudoeste 0 980.7 -0.8 29
2019-06-09 11:00:00 21.7 7 Oeste 13 Oeste 0 981 -0.5 33
2019-06-09 10:00:00 20.5 3 Sudeste 10 Nordeste 0 981.5 -0.2 38
2019-06-09 09:00:00 18.4 5 Este 12 Este 0 981.5 -0.4 46
2019-06-09 08:00:00 15.1 2 Este 8 Sudeste 0 981.5 -0.5 61
2019-06-09 07:00:00 14.7 4 Sudeste 8 Sudeste 0 981.7 -0.7 60
2019-06-09 06:00:00 15.3 7 Este 17 Este 0 981.9 -0.8 56
2019-06-09 05:00:00 15.9 11 Este 18 Este 0 982 -0.9 51
2019-06-09 04:00:00 16 2 Este 24 Sudeste 0 982.4 -0.9 51
2019-06-09 03:00:00 17.2 18 Sudeste 39 Sudeste 0 982.7 -0.4 46
2019-06-09 02:00:00 18.1 22 Sudeste 36 Sudeste 0 982.9 0.1 43
2019-06-09 01:00:00 18.8 23 Sudeste 39 Este 0 983.3 1.3 39
2019-06-09 00:00:00 19.1 20 Sudeste 33 Este 0 983.1 1.5 38
2019-06-08 23:00:00 20.2 22 Sudeste 31 Este 0 982.8 1.1 41
2019-06-08 22:00:00 21.9 21 Este 30 Este 0 982 0.2 40
2019-06-08 21:00:00 23.7 20 Este 37 Este 0 981.6 -0.8 35
2019-06-08 20:00:00 24.8 27 Este 38 Este 0 981.7 -1.3 33
2019-06-08 19:00:00 25.9 27 Este 39 Este 0 981.8 -2.2 28
2019-06-08 18:00:00 26.7 16 Sudeste 33 Este 0 982.4 -2.4 25
2019-06-08 17:00:00 26 18 Este 34 Este 0 983 -2.8 25
2019-06-08 16:00:00 25.4 23 Este 37 Este 0 984 -2.9 25
2019-06-08 15:00:00 24.7 24 Este 38 Este 0 984.8 -2.9 26
2019-06-08 14:00:00 24 18 Este 33 Este 0 985.8 -2.6 27
2019-06-08 13:00:00 21.5 12 Sudeste 23 Sudeste 0 986.9 -1.8 31
2019-06-08 12:00:00 19.2 6 Noroeste 11 Oeste 0 987.7 -0.9 37
2019-06-08 11:00:00 17.3 5 Oeste 14 Oeste 0 988.4 -0.2 43
2019-06-08 10:00:00 14.8 8 Sudoeste 14 Oeste 0 988.7 0.4 52
2019-06-08 09:00:00 12.7 9 Noroeste 14 Noroeste 0 988.6 0.4 62
2019-06-08 08:00:00 10.7 7 Noroeste 11 Oeste 0 988.6 0.4 70
2019-06-08 07:00:00 8.6 4 Noroeste 9 Noroeste 0 988.3 0.3 77
2019-06-08 06:00:00 9 8 Noroeste 12 Noroeste 0 988.2 0.6 75
2019-06-08 05:00:00 9.5 6 Oeste 10 Oeste 0 988.2 0.6 74
2019-06-08 04:00:00 9.9 2 Sudoeste 13 Oeste 0 988 1.3 69
2019-06-08 03:00:00 10.2 13 Oeste 17 Oeste 0 987.6 1 69
2019-06-08 02:00:00 11.6 8 Sudoeste 24 Oeste 0 987.6 1.8 66
2019-06-08 01:00:00 12.4 15 Oeste 23 Noroeste 0 986.7 2.4 65
2019-06-08 00:00:00 13.8 8 Noroeste 19 Norte 0 986.6 3.3 60
2019-06-07 23:00:00 15.3 16 Noroeste 32 Norte 0 985.8 3.1 53
2019-06-07 22:00:00 17.5 22 Norte 32 Norte 0 984.3 2.1 46
2019-06-07 21:00:00 20.6 21 Noroeste 30 Oeste 0 983.3 1.5 30
2019-06-07 20:00:00 21.7 11 Noroeste 26 Oeste 0 982.7 1.1 24
2019-06-07 19:00:00 21.9 18 Oeste 27 Sudoeste 0 982.2 1 24
2019-06-07 18:00:00 21.8 12 Oeste 20 Oeste 0 981.8 1 25
2019-06-07 17:00:00 21.1 13 Norte 29 Noroeste 0 981.6 1.2 28
2019-06-07 16:00:00 22.9 12 Noroeste 28 Noroeste 0 981.2 1.3 25
2019-06-07 15:00:00 22.3 13 Noroeste 24 Noroeste 0 980.8 1.4 25
2019-06-07 14:00:00 21.1 12 Noroeste 24 Sudoeste 0 980.4 1.6 25
2019-06-07 13:00:00 20.6 6 Sur 22 Oeste 0 979.9 1.7 27
2019-06-07 12:00:00 19.9 8 Este 16 Sudeste 0 979.4 1.9 28
2019-06-07 11:00:00 18.2 8 Oeste 18 Sudeste 0 978.8 2.2 33
2019-06-07 10:00:00 17 9 Sur 17 Sudoeste 0 978.2 3 39
2019-06-07 09:00:00 15.7 8 Sudoeste 22 Sudoeste 0 977.5 2.6 48
2019-06-07 08:00:00 13.8 19 Sudoeste 31 Sudoeste 0 976.6 3.2 55
2019-06-07 07:00:00 13.9 12 Sudeste 17 Sudeste 0 975.2 3.9 61
2019-06-07 06:00:00 14 7 Oeste 35 Noroeste 0 974.9 3.6 60
2019-06-07 05:00:00 14.6 32 Noroeste -- -- 0 973.4 2.3 55
2019-06-07 04:00:00 16.4 31 Este 53 Este 0 971.3 0.1 74
2019-06-07 03:00:00 16.8 32 Este 55 Este 0 971.3 0.4 71
2019-06-07 02:00:00 16.5 38 Este 61 Este 0 971.1 0.6 72
2019-06-07 01:00:00 17.1 37 Este 61 Este 0 971.2 1.1 65
2019-06-07 00:00:00 18.1 41 Este 63 Este 0 970.9 1.3 59
2019-06-06 23:00:00 19.1 42 Este 66 Este 0 970.5 0.2 55
2019-06-06 22:00:00 20.8 34 Este 65 Este 0 970.1 -0.5 44
2019-06-06 21:00:00 21.9 37 Este 59 Este 0 969.6 -1.8 44
2019-06-06 20:00:00 25.3 28 Sudeste 52 Este 0 970.3 -2.1 31
2019-06-06 19:00:00 25.8 35 Sudeste 55 Sudeste 0 970.6 -3 26
2019-06-06 18:00:00 27.2 37 Sudeste 53 Sudeste 0 971.4 -3.2 21
2019-06-06 17:00:00 25.7 33 Sudeste 55 Sudeste 0 972.4 -3.3 23
2019-06-06 16:00:00 25.3 32 Sudeste 51 Sudeste 0 973.6 -3.1 23
2019-06-06 15:00:00 24.1 31 Sudeste 48 Sudeste 0 974.6 -3.1 27
2019-06-06 14:00:00 22.6 26 Sudeste 45 Sudeste 0 975.7 -2.8 31
2019-06-06 13:00:00 20.1 27 Este 44 Este 0 976.7 -2.5 45
2019-06-06 12:00:00 18.6 15 Este 33 Este 0 977.7 -1.7 47
2019-06-06 11:00:00 17 8 Sudeste 18 Sudeste 0 978.5 -1 56
2019-06-06 10:00:00 14.9 2 Norte 7 Este 0 979.2 -0.3 63
2019-06-06 09:00:00 12.5 3 Este 5 Este 0 979.4 -0.2 75
2019-06-06 08:00:00 10.5 2 Sudeste 4 Sudeste 0 979.5 -0.1 85
2019-06-06 07:00:00 9.7 2 Nordeste -- -- -- 979.5 -0.2 87
2019-06-06 06:00:00 9.8 4 Oeste 9 Sudoeste 0 979.6 -0.1 86
2019-06-06 05:00:00 9.7 5 Sudeste 10 Noroeste 0 979.6 0 84
2019-06-06 04:00:00 9.6 3 Norte 11 Noroeste 0 979.7 -0.3 85
2019-06-06 03:00:00 10.1 4 Noroeste 10 Norte 0 979.7 -0.1 82
2019-06-06 02:00:00 10.8 10 Noroeste 21 Oeste 0 979.6 0 79
2019-06-06 01:00:00 11.7 15 Oeste 20 Oeste 0 980 1.1 74
2019-06-06 00:00:00 11.7 13 Oeste 16 Oeste 0 979.8 1.5 77
2019-06-05 23:00:00 12.3 12 Noroeste 18 Noroeste 0 979.6 1.4 72
2019-06-05 22:00:00 13.9 14 Noroeste 27 Norte 0 978.9 1.1 62
2019-06-05 21:00:00 15.4 16 Norte 37 Noroeste 0 978.3 1 58
2019-06-05 20:00:00 17.3 23 Noroeste 37 Noroeste 0 978.2 1.2 51
2019-06-05 19:00:00 17.6 26 Noroeste 42 Noroeste 0 977.8 0.6 49
2019-06-05 18:00:00 18 21 Oeste 41 Noroeste 0 977.3 -0.1 53
2019-06-05 17:00:00 18.2 28 Noroeste 43 Noroeste 0 977 -0.6 51
2019-06-05 16:00:00 17 30 Noroeste 39 Noroeste 0 977.2 0.5 57
2019-06-05 15:00:00 15.6 27 Oeste 40 Noroeste 0 977.4 1.8 66
2019-06-05 14:00:00 14.1 25 Oeste 42 Noroeste 0 977.6 2.9 73
2019-06-05 13:00:00 14.8 33 Noroeste 52 Noroeste 0 976.7 2.4 67
2019-06-05 12:00:00 13.6 24 Noroeste 44 Noroeste 0.2 975.6 2.5 78
2019-06-05 11:00:00 13.4 32 Noroeste 48 Oeste 0.2 974.7 2.2 79
2019-06-05 10:00:00 11.7 30 Noroeste 45 Noroeste 2.4 974.3 2.1 93
2019-06-05 09:00:00 11.9 27 Noroeste 51 Oeste 1 973.1 0.8 92
2019-06-05 08:00:00 12.2 31 Oeste 46 Oeste 0 972.5 -0.1 90
2019-06-05 07:00:00 11.5 24 Noroeste 36 Noroeste 0.4 972.2 -0.2 93
2019-06-05 06:00:00 11.5 23 Noroeste 42 Oeste 3.2 972.3 -1 93
2019-06-05 05:00:00 12.3 29 Oeste 42 Oeste 0 972.6 -1.4 85
2019-06-05 04:00:00 12.6 23 Oeste 41 Oeste 1.4 972.4 -1.9 83
2019-06-05 03:00:00 13.7 22 Noroeste 42 Noroeste 0 973.3 -0.9 73
2019-06-05 02:00:00 14.2 25 Noroeste 41 Noroeste 0 974 0.1 68
2019-06-05 01:00:00 14.6 32 Noroeste 46 Oeste 0 974.3 1.4 69
2019-06-05 00:00:00 15.1 28 Noroeste 42 Noroeste 0 974.2 2.1 72
2019-06-04 23:00:00 16.4 28 Noroeste 40 Noroeste 0 973.9 2.9 71
2019-06-04 22:00:00 18.6 22 Noroeste 40 Norte 0 972.9 3.3 67
2019-06-04 21:00:00 20.3 19 Norte -- -- 0.2 972.1 2.6 64
2019-06-04 20:00:00 23.9 24 Noroeste 58 Noroeste 0 971 0.7 53
2019-06-04 19:00:00 27.2 -- -- -- -- 0 969.6 -1.4 42
2019-06-04 18:00:00 33.4 31 Sudoeste -- -- 0 969.5 -2.1 15
2019-06-04 17:00:00 32.3 23 Sudeste 37 Sudeste 0 970.3 -1.9 18
2019-06-04 16:00:00 32.2 26 Sur 45 Sur 0 971 -2.3 19
2019-06-04 15:00:00 32.6 23 Sudeste 46 Este 0 971.6 -2.4 17
2019-06-04 14:00:00 30.9 31 Este 50 Este 0 972.2 -2.7 23
2019-06-04 13:00:00 28.5 34 Este 52 Este 0 973.3 -2.3 26
2019-06-04 12:00:00 26.5 36 Este 49 Este 0 974 -1.6 29
2019-06-04 11:00:00 23.8 30 Este 41 Este 0 974.9 -0.7 35
2019-06-04 10:00:00 21.4 25 Este 36 Este 0 975.6 0.2 41
2019-06-04 09:00:00 19 19 Sudeste 31 Este 0 975.6 0.3 48
2019-06-04 08:00:00 17.4 19 Sudeste 32 Sudeste 0 975.6 0.1 51
2019-06-04 07:00:00 16.6 24 Sudeste 39 Sudeste 0 975.4 -0.3 52
2019-06-04 06:00:00 16.9 22 Sudeste 36 Sudeste 0 975.3 -0.7 52
2019-06-04 05:00:00 17.6 22 Este 41 Este 0 975.5 -0.5 49
2019-06-04 04:00:00 18.3 24 Sudeste 39 Este 0 975.7 -0.9 48
2019-06-04 03:00:00 19 27 Este 50 Este 0 976 0 46
2019-06-04 02:00:00 20.1 35 Este 50 Este 0 976 0.3 43
2019-06-04 01:00:00 21.6 31 Este 59 Este 0 976.6 1.2 42
2019-06-04 00:00:00 23.3 44 Este 62 Este 0 976 0.5 41
2019-06-03 23:00:00 24.8 35 Este 55 Este 0 975.7 0 39
2019-06-03 22:00:00 26.3 35 Este 47 Este 0 975.4 -0.6 37
2019-06-03 21:00:00 28.4 27 Este 37 Este 0 975.5 -1 30
2019-06-03 20:00:00 30.5 27 Este 38 Este 0 975.7 -1.4 26
2019-06-03 19:00:00 32.8 20 Este 36 Este 0 976 -2 22
2019-06-03 18:00:00 32.7 21 Este 32 Este 0 976.5 -2.5 21
2019-06-03 17:00:00 31.5 21 Este 33 Este 0 977.1 -3 24
2019-06-03 16:00:00 30.7 22 Este 36 Este 0 978 -2.8 25
2019-06-03 15:00:00 30 11 Este 25 Este 0 979 -2.2 24
2019-06-03 14:00:00 28.9 6 Oeste 22 Sur 0 980.1 -1.2 24
2019-06-03 13:00:00 27.5 9 Este 27 Este 0 980.8 -0.8 24
2019-06-03 12:00:00 25.1 13 Este 31 Este 0 981.2 -0.4 27
2019-06-03 11:00:00 23.2 20 Este 31 Sudeste 0 981.3 -0.1 29
2019-06-03 10:00:00 21.5 17 Sudeste 24 Este 0 981.6 0.4 34
2019-06-03 09:00:00 20.4 15 Sudeste 22 Sudeste 0 981.6 0.8 36
2019-06-03 08:00:00 18.8 9 Este 14 Este 0 981.4 0.8 48
2019-06-03 07:00:00 18.1 8 Este 18 Este 0 981.2 0.3 49
2019-06-03 06:00:00 19.4 18 Este 27 Este 0 980.8 0.5 43
2019-06-03 05:00:00 19.7 18 Este 27 Este 0 980.6 0.6 43
2019-06-03 04:00:00 20.8 17 Sudeste 30 Sudeste 0 980.9 -0.3 40
2019-06-03 03:00:00 21.9 10 Este 36 Este 0 980.3 0.1 39
2019-06-03 02:00:00 23.3 26 Este 35 Este 0 980 -0.4 34
2019-06-03 01:00:00 23.9 17 Sudeste 37 Este 0 981.2 2.1 37
2019-06-03 00:00:00 25 26 Este 38 Este 0 980.2 1.6 37
2019-06-02 23:00:00 26 24 Este 36 Este 0 980.4 1.9 38
2019-06-02 22:00:00 28 17 Este 21 Este 0 979.1 0.6 35
2019-06-02 21:00:00 31.1 5 Sudoeste 14 Sudoeste 0 978.6 -0.3 24
2019-06-02 20:00:00 33.4 6 Sur 17 Este 0 978.5 -0.8 20
2019-06-02 19:00:00 33.6 12 Este 23 Nordeste 0 978.5 -1.5 17
2019-06-02 18:00:00 33.6 13 Este 27 Este 0 978.9 -1.7 18
2019-06-02 17:00:00 33.1 15 Este 30 Este 0 979.3 -2.3 20
2019-06-02 16:00:00 32.4 14 Este 26 Este 0 980 -2.3 22
2019-06-02 15:00:00 31.4 14 Este 30 Este 0 980.6 -2.3 23
2019-06-02 14:00:00 30.3 18 Este 31 Este 0 981.6 -1.5 25
2019-06-02 13:00:00 28.5 20 Este 29 Este 0 982.3 -1.1 27
2019-06-02 12:00:00 26.7 19 Este 31 Este 0 982.9 -0.6 30
2019-06-02 11:00:00 25.2 20 Este 29 Este 0 983.1 -0.3 30
2019-06-02 10:00:00 22.8 16 Este 23 Este 0 983.4 0 38
2019-06-02 09:00:00 20.3 11 Este 26 Este 0 983.5 0.6 47
2019-06-02 08:00:00 18.9 18 Este 26 Este 0 983.4 0.4 48
2019-06-02 07:00:00 17 10 Sudeste 25 Sudeste 0 983.4 0.5 54
2019-06-02 06:00:00 17.1 17 Sudeste 27 Este 0 982.9 0 56
2019-06-02 05:00:00 17.6 19 Sudeste 33 Este 0 983 -0.2 56
2019-06-02 04:00:00 18.4 23 Este 37 Este 0 982.9 -0.3 54
2019-06-02 03:00:00 19.2 29 Este 39 Este 0 982.9 0 56
2019-06-02 02:00:00 20 18 Este 28 Este 0 983.2 0.8 53
2019-06-02 01:00:00 21.6 10 Este 22 Este 0 983.2 1.3 45
2019-06-02 00:00:00 22.5 14 Este 29 Este 0 982.9 1.3 44
2019-06-01 23:00:00 24.3 13 Este 19 Este 0 982.4 0.8 38
2019-06-01 22:00:00 26.4 9 Sudeste 12 Sur 0 981.9 0.3 28
2019-06-01 21:00:00 30.1 8 Nordeste 17 Este 0 981.6 -0.4 19
2019-06-01 20:00:00 31.4 10 Este 21 Este 0 981.6 -0.9 16
2019-06-01 19:00:00 32 12 Nordeste 23 Este 0 981.6 -1.6 17
2019-06-01 18:00:00 31.9 13 Este 27 Este 0 982 -2 18
2019-06-01 17:00:00 31.7 14 Este 32 Este 0 982.5 -2.3 20
2019-06-01 16:00:00 31.2 13 Este 31 Este 0 983.2 -2.3 23
2019-06-01 15:00:00 30 13 Este 30 Este 0 984 -1.9 25
2019-06-01 14:00:00 28.5 21 Este 33 Este 0 984.8 -1.5 29
2019-06-01 13:00:00 27.4 21 Este 32 Este 0 985.5 -1.1 31
2019-06-01 12:00:00 25.4 21 Este 32 Este 0 985.9 -0.6 37
2019-06-01 11:00:00 24.6 10 Sudeste 20 Sudeste 0 986.3 -0.1 39
2019-06-01 10:00:00 22 7 Este 22 Este 0 986.6 0.6 47
2019-06-01 09:00:00 19.9 17 Este -- -- 0 986.5 0.5 53
2019-06-01 08:00:00 17.4 13 Este 27 Este 0 986.4 0.7 63
2019-06-01 07:00:00 16.3 22 Este 30 Este 0 986 0.3 66
2019-06-01 06:00:00 16.4 21 Sudeste 28 Sudeste 0 986 0.3 66
2019-06-01 05:00:00 16.9 19 Sudeste 29 Sudeste 0 985.7 -0.3 66
2019-06-01 04:00:00 17.6 15 Este 23 Este 0 985.7 -0.2 66
2019-06-01 03:00:00 17.4 7 Este 14 Este 0 985.7 -0.1 67
2019-06-01 02:00:00 17.6 12 Este 26 Sudeste 0 986 0.5 64
2019-06-01 01:00:00 18.6 7 Sudeste 13 Este 0 985.9 1.1 54
2019-06-01 00:00:00 19.4 7 Norte 9 Noroeste 0 985.8 1.2 45
2019-05-31 23:00:00 21.6 5 Este 12 Sudeste 0 985.5 1 39
2019-05-31 22:00:00 24.4 10 Sudeste 13 Sur 0 984.8 0 32
2019-05-31 21:00:00 28.2 9 Este 15 Este 0 984.6 -0.6 23
2019-05-31 20:00:00 29.4 12 Este 18 Sudeste 0 984.5 -1.3 20
2019-05-31 19:00:00 30.4 4 Sudeste 15 Este 0 984.8 -1.5 19
2019-05-31 18:00:00 29.9 9 Nordeste 17 Sudoeste 0 985.2 -1.8 20
2019-05-31 17:00:00 30.1 6 Oeste 15 Noroeste 0 985.8 -1.8 19
2019-05-31 16:00:00 29 7 Norte 16 Nordeste 0 986.3 -2 22
2019-05-31 15:00:00 28 6 Norte 15 Nordeste 0 987 -1.6 27
2019-05-31 14:00:00 26.4 7 Este 17 Sudeste 0 987.6 -1.3 32
2019-05-31 13:00:00 24.8 8 Este 24 Este 0 988.3 -1 36
2019-05-31 12:00:00 22.9 12 Este 29 Este 0 988.6 -0.6 40
2019-05-31 11:00:00 21.1 17 Este 26 Este 0 988.9 -0.2 43
2019-05-31 10:00:00 20 13 Este 20 Este 0 989.3 0.5 46
2019-05-31 09:00:00 18.2 3 Norte 6 Norte 0 989.2 0.7 62
2019-05-31 08:00:00 14.5 3 Sudeste 7 Noroeste 0 989.1 0.5 74
2019-05-31 07:00:00 11.6 6 Noroeste 10 Norte 0 988.8 0.4 84
2019-05-31 06:00:00 12.1 4 Noroeste 9 Noroeste 0 988.5 0.1 83
2019-05-31 05:00:00 13.6 5 Norte 9 Sudeste 0 988.6 0.4 79
2019-05-31 04:00:00 13.6 4 Oeste 6 Noroeste 0 988.4 0.1 77
2019-05-31 03:00:00 15.6 4 Noroeste 16 Noroeste 0 988.4 0 75
2019-05-31 02:00:00 16.6 13 Noroeste 25 Noroeste 0 988.2 0 72
2019-05-31 01:00:00 18.1 20 Noroeste 28 Oeste 0 988.3 1.1 67
2019-05-31 00:00:00 18.9 23 Oeste 34 Noroeste 0 988.4 1.7 63
2019-05-30 23:00:00 19.9 17 Oeste 36 Noroeste 0 988.2 1.9 60
2019-05-30 22:00:00 21.8 24 Noroeste 40 Noroeste 0 987.2 1 51
2019-05-30 21:00:00 24.6 26 Noroeste 42 Noroeste 0 986.7 0.4 41
2019-05-30 20:00:00 27.1 33 Noroeste 44 Noroeste 0 986.3 -0.6 28
2019-05-30 19:00:00 28.7 30 Noroeste 40 Noroeste 0 986.2 -1.3 23
2019-05-30 18:00:00 29.2 30 Noroeste 43 Noroeste 0 986.3 -1.8 23
2019-05-30 17:00:00 29.5 18 Noroeste -- -- 0 986.9 -1.7 21
2019-05-30 16:00:00 28.3 17 Noroeste -- -- 0 987.5 -1.7 25
2019-05-30 15:00:00 27.1 17 Noroeste 34 Noroeste 0 988.1 -1.7 29
2019-05-30 14:00:00 25.8 13 Noroeste 26 Oeste 0 988.6 -1.3 31
2019-05-30 13:00:00 24.1 12 Noroeste 26 Oeste 0 989.2 -1 35
2019-05-30 12:00:00 21.7 10 Noroeste 25 Noroeste 0 989.8 -0.4 39
2019-05-30 11:00:00 19.6 19 Noroeste 29 Noroeste 0 989.9 -0.1 43
2019-05-30 10:00:00 17.2 19 Noroeste 28 Noroeste 0 990.2 0.6 49
2019-05-30 09:00:00 15 17 Noroeste 28 Noroeste 0 990.2 0.7 54
2019-05-30 08:00:00 12.8 18 Noroeste 26 Noroeste 0 990 0.7 61
2019-05-30 07:00:00 11 9 Noroeste 17 Noroeste 0 989.6 0.1 67
2019-05-30 06:00:00 11.5 7 Noroeste 21 Oeste 0 989.5 0 62
2019-05-30 05:00:00 12 18 Noroeste 29 Noroeste 0 989.3 -0.1 61
2019-05-30 04:00:00 12.6 14 Noroeste 38 Noroeste 0 989.5 -0.3 58
2019-05-30 03:00:00 12.7 19 Noroeste 42 Noroeste 0 989.5 -0.4 64
2019-05-30 02:00:00 13.1 32 Noroeste 48 Noroeste 0 989.4 -0.9 63
2019-05-30 01:00:00 13.5 32 Noroeste 50 Noroeste 0 989.8 0.2 62
2019-05-30 00:00:00 14.1 39 Noroeste 55 Noroeste 0 989.9 0.7 57
2019-05-29 23:00:00 14.5 31 Noroeste 47 Noroeste 0 990.3 1.9 53
2019-05-29 22:00:00 15.2 30 Oeste 47 Noroeste 0 989.6 1.6 53
2019-05-29 21:00:00 17 34 Noroeste 54 Noroeste 0 989.2 1 46
2019-05-29 20:00:00 18.2 43 Noroeste 58 Noroeste 0 988.4 0.3 43
2019-05-29 19:00:00 19 44 Noroeste 58 Noroeste 0 988 -0.2 41
2019-05-29 18:00:00 19.8 39 Noroeste 55 Noroeste 0 988.2 -0.2 37
2019-05-29 17:00:00 19.9 40 Noroeste 58 Noroeste 0 988.1 -0.5 37
2019-05-29 16:00:00 20 41 Noroeste 61 Noroeste 0 988.2 -0.6 35
2019-05-29 15:00:00 19.6 38 Noroeste 60 Noroeste 0 988.4 -0.7 36
2019-05-29 14:00:00 18.8 41 Noroeste 58 Noroeste 0 988.6 -0.5 39
2019-05-29 13:00:00 17.6 42 Noroeste 65 Noroeste 0 988.8 -0.1 42
2019-05-29 12:00:00 17 38 Noroeste 58 Noroeste 0 989.1 0.3 43
2019-05-29 11:00:00 15.5 31 Noroeste 53 Noroeste 0 989.1 0.6 54
2019-05-29 10:00:00 15 33 Noroeste 46 Oeste 0 988.9 0.8 65
2019-05-29 09:00:00 13.5 30 Noroeste 40 Oeste 0 988.8 1.1 70
2019-05-29 08:00:00 12.3 27 Noroeste 42 Noroeste 0 988.5 1 73
2019-05-29 07:00:00 10.9 14 Noroeste 36 Oeste 0 988.1 0.2 79
2019-05-29 06:00:00 11.7 27 Oeste 43 Oeste 0 987.7 -0.1 73
2019-05-29 05:00:00 12.2 27 Oeste 35 Oeste 0 987.5 -0.2 68
2019-05-29 04:00:00 12 20 Noroeste 31 Noroeste 0 987.9 0.3 68
2019-05-29 03:00:00 12.1 21 Oeste 28 Oeste 0 987.8 0.5 67
2019-05-29 02:00:00 11.5 17 Oeste 27 Noroeste 0 987.7 0.5 71
2019-05-29 01:00:00 12.4 21 Noroeste 31 Noroeste 0 987.6 0.9 66
2019-05-29 00:00:00 12.4 26 Noroeste 39 Noroeste 0 987.3 1.1 65
2019-05-28 23:00:00 12.9 27 Noroeste 39 Noroeste 0 987.2 1.7 66
2019-05-28 22:00:00 13.6 28 Noroeste 43 Noroeste 0 986.7 1.6 62
2019-05-28 21:00:00 14.8 27 Noroeste 50 Noroeste 0 986.2 1.6 51
2019-05-28 20:00:00 15.4 36 Noroeste 54 Noroeste 0 985.5 1.1 48
2019-05-28 19:00:00 16.1 35 Noroeste 51 Noroeste 0 985.1 1.2 49
2019-05-28 18:00:00 16.7 39 Noroeste 68 Noroeste 0 984.6 1.3 54
2019-05-28 17:00:00 17.3 41 Noroeste 61 Noroeste 0 984.4 0.8 50
2019-05-28 16:00:00 16.7 37 Noroeste 55 Noroeste 0 983.9 0 49
2019-05-28 15:00:00 18 35 Noroeste 59 Noroeste 0 983.3 -0.1 42
2019-05-28 14:00:00 16.8 41 Noroeste 57 Noroeste 0 983.6 0.6 48
2019-05-28 13:00:00 16.2 38 Noroeste 57 Noroeste 0 983.9 0.6 54
2019-05-28 12:00:00 15.9 38 Noroeste 57 Noroeste 0 983.4 0.2 54
2019-05-28 11:00:00 16.1 42 Noroeste -- -- -- 983 0 50
2019-05-28 10:00:00 14.9 37 Noroeste 54 Noroeste 0 983.3 0.8 53
2019-05-28 09:00:00 13.5 28 Noroeste 40 Noroeste 0 983.2 1.2 60
2019-05-28 08:00:00 11.9 21 Oeste 36 Oeste 0 983 1.1 67
2019-05-28 07:00:00 10.7 23 Noroeste 33 Noroeste 0 982.5 0.7 70
2019-05-28 06:00:00 11.5 24 Oeste 35 Noroeste 0 982 0 64
2019-05-28 05:00:00 11.5 22 Noroeste 43 Noroeste 0 981.9 -0.1 67
2019-05-28 04:00:00 11.4 26 Noroeste 41 Noroeste 0 981.8 -0.5 68
2019-05-28 03:00:00 12 27 Noroeste 40 Noroeste 0 982 -0.2 67
2019-05-28 02:00:00 12.6 26 Noroeste 35 Noroeste 0 982 -0.4 69
2019-05-28 01:00:00 13 24 Noroeste 38 Oeste 0 982.3 1 69
2019-05-28 00:00:00 13.8 25 Oeste 39 Noroeste 0 982.2 1.8 63
2019-05-27 23:00:00 14.8 26 Noroeste 42 Noroeste 0 982.4 3 57
2019-05-27 22:00:00 16.1 35 Noroeste 56 Noroeste 0 981.3 2.3 57
2019-05-27 21:00:00 17.8 35 Noroeste 59 Noroeste 0 980.4 1 60
2019-05-27 20:00:00 19.5 38 Noroeste 59 Noroeste 0 979.4 -0.1 55
2019-05-27 19:00:00 20.6 36 Noroeste 53 Noroeste 0 979 -0.5 53
2019-05-27 18:00:00 20.5 40 Noroeste 55 Noroeste 0 979.4 -0.4 53
2019-05-27 17:00:00 20.8 40 Noroeste 61 Noroeste 0 979.5 -0.4 51
2019-05-27 16:00:00 21.1 41 Noroeste 59 Noroeste 0 979.5 -0.7 50
2019-05-27 15:00:00 20.9 37 Noroeste 59 Noroeste 0 979.8 -0.6 50
2019-05-27 14:00:00 20.6 39 Noroeste 55 Noroeste 0 979.9 -0.9 51
2019-05-27 13:00:00 18.8 32 Noroeste 54 Oeste 0 980.2 -0.7 56
2019-05-27 12:00:00 17.9 39 Noroeste 56 Noroeste 0 980.4 -0.9 58
2019-05-27 11:00:00 17 37 Noroeste 50 Noroeste 0 980.8 -0.4 59
2019-05-27 10:00:00 16.1 29 Noroeste 46 Noroeste 0 980.9 -0.3 63
2019-05-27 09:00:00 14.5 27 Noroeste 41 Oeste 0 981.3 0.2 68
2019-05-27 08:00:00 13.8 20 Oeste 46 Noroeste 0 981.2 -0.5 72
2019-05-27 07:00:00 13 23 Noroeste 35 Noroeste 0 981.2 -0.8 75
2019-05-27 06:00:00 12.6 17 Noroeste 30 Noroeste 0 981.1 -1.1 75
2019-05-27 05:00:00 12.9 23 Noroeste 32 Noroeste 0 981.7 -1.2 76
2019-05-27 04:00:00 12.9 20 Noroeste 39 Noroeste 0 982 -1.3 74
2019-05-27 03:00:00 13.5 31 Noroeste 45 Noroeste 0 982.2 -1.7 72
2019-05-27 02:00:00 13.9 26 Noroeste 39 Noroeste 0 982.9 -1.2 71
2019-05-27 01:00:00 14.2 28 Noroeste 38 Noroeste 0 983.3 -0.1 69
2019-05-27 00:00:00 14.5 21 Noroeste 30 Noroeste 0 983.9 0.5 70
2019-05-26 23:00:00 14.6 20 Noroeste 43 Noroeste 0 984.1 0.8 66
2019-05-26 22:00:00 15 30 Noroeste 51 Noroeste 0 983.4 0.3 65
2019-05-26 21:00:00 15.9 32 Noroeste 53 Noroeste 0 983.4 0.4 63
2019-05-26 20:00:00 17.7 36 Noroeste 57 Noroeste 0 983.3 0 56
2019-05-26 19:00:00 18.2 44 Noroeste 63 Noroeste 0 983.1 -0.8 55
2019-05-26 18:00:00 19.2 47 Noroeste 66 Noroeste 0 983 -0.3 50
2019-05-26 17:00:00 19.7 49 Noroeste 73 Noroeste 0 983.3 -0.6 50
2019-05-26 16:00:00 19.6 44 Noroeste 73 Noroeste 0 983.9 -0.6 50
2019-05-26 15:00:00 19.2 53 Noroeste 74 Noroeste 0 983.3 -1.5 52
2019-05-26 14:00:00 18.4 59 Noroeste 77 Noroeste 0 983.9 -0.8 53
2019-05-26 13:00:00 18 46 Noroeste 64 Noroeste 0 984.5 -0.4 54
2019-05-26 12:00:00 17.7 46 Noroeste 62 Noroeste 0 984.8 -0.4 52
2019-05-26 11:00:00 16.5 45 Noroeste 61 Noroeste 0 984.7 -0.7 58
2019-05-26 10:00:00 16.1 35 Noroeste 50 Noroeste 0 984.9 -0.4 59
2019-05-26 09:00:00 14.2 38 Noroeste 54 Noroeste 0 985.2 -0.2 65
2019-05-26 08:00:00 13.4 29 Oeste 40 Oeste 0 985.4 -0.1 68
2019-05-26 07:00:00 12 26 Oeste 49 Noroeste 0 985.3 -0.6 74
2019-05-26 06:00:00 12.2 27 Oeste 40 Oeste 0 985.4 -0.7 74
2019-05-26 05:00:00 11.7 26 Oeste 44 Noroeste 0 985.5 -0.9 72
2019-05-26 04:00:00 12.5 35 Noroeste 48 Noroeste 0 985.9 -0.1 68
2019-05-26 03:00:00 12.7 32 Noroeste 53 Noroeste 0 986.1 -0.2 66
2019-05-26 02:00:00 12.8 30 Oeste 58 Noroeste 0 986.4 -0.1 67
2019-05-26 01:00:00 13.1 47 Noroeste 68 Noroeste 0 986 0.1 66
2019-05-26 00:00:00 13.1 34 Noroeste 55 Noroeste 0 986.3 0.6 69
2019-05-25 23:00:00 13.4 37 Noroeste 55 Noroeste 0 986.5 1.2 70
2019-05-25 22:00:00 13.8 36 Noroeste 57 Noroeste 0 985.9 1 67
2019-05-25 21:00:00 14.8 40 Noroeste 57 Noroeste 0 985.7 0.9 66
2019-05-25 20:00:00 16.3 45 Noroeste 60 Noroeste 0 985.3 0.4 60
2019-05-25 19:00:00 17.7 45 Noroeste 66 Noroeste 0 984.9 0.1 57
2019-05-25 18:00:00 18.4 47 Noroeste 65 Noroeste 0 984.8 -0.4 54
2019-05-25 17:00:00 18.6 43 Noroeste 61 Noroeste 0 984.9 0.1 53
2019-05-25 16:00:00 19.2 39 Noroeste 59 Noroeste 0 984.8 -0.2 49
2019-05-25 15:00:00 19.2 40 Noroeste 62 Noroeste 0 985.2 0.1 50
2019-05-25 14:00:00 19.4 43 Noroeste 63 Noroeste 0 984.8 -0.1 49
2019-05-25 13:00:00 18.5 46 Noroeste 64 Noroeste 0 985 0 51
2019-05-25 12:00:00 17.7 49 Noroeste 63 Noroeste 0 985.1 0.3 54
2019-05-25 11:00:00 17.2 41 Noroeste 60 Noroeste 0 984.9 0.6 57
2019-05-25 10:00:00 15.9 45 Noroeste 71 Noroeste 0 985 1.2 63
2019-05-25 09:00:00 14.1 35 Noroeste 47 Noroeste 0 984.8 1 70
2019-05-25 08:00:00 13.2 35 Oeste 49 Noroeste 0 984.3 0.6 73
2019-05-25 07:00:00 13 28 Noroeste 46 Noroeste 0 983.8 0.3 73
2019-05-25 06:00:00 13.1 28 Noroeste 44 Noroeste 0 983.8 0.3 73
2019-05-25 05:00:00 12.9 26 Noroeste 46 Noroeste 0 983.7 0.1 73
2019-05-25 04:00:00 13.3 38 Noroeste 53 Noroeste 0 983.5 -0.5 72
2019-05-25 03:00:00 13.2 31 Noroeste 54 Noroeste 0 983.5 -0.3 73
2019-05-25 02:00:00 13.4 38 Noroeste 57 Noroeste 0 983.6 -0.2 71
2019-05-25 01:00:00 13.7 41 Noroeste 63 Noroeste 0 984 0.6 72
2019-05-25 00:00:00 13.9 41 Noroeste 57 Noroeste 0 983.8 0.7 71
2019-05-24 23:00:00 14.1 40 Noroeste 53 Noroeste 0 983.8 1.4 71
2019-05-24 22:00:00 14.4 22 Noroeste 44 Noroeste 0 983.4 0.9 72
2019-05-24 21:00:00 14.8 37 Noroeste 61 Noroeste 0 983.1 0.8 69
2019-05-24 20:00:00 16.1 37 Noroeste 56 Noroeste 0 982.4 0.3 65
2019-05-24 19:00:00 16.9 42 Noroeste 62 Noroeste 0 982.5 0.1 61
2019-05-24 18:00:00 17.3 45 Noroeste 60 Noroeste 0 982.3 0 57
2019-05-24 17:00:00 17.2 42 Noroeste 59 Noroeste 0 982.1 -0.4 58
2019-05-24 16:00:00 16.9 39 Noroeste 57 Noroeste 0 982.4 -0.3 61
2019-05-24 15:00:00 18.3 37 Noroeste 55 Noroeste 0 982.3 -0.5 57
2019-05-24 14:00:00 17.3 35 Noroeste 52 Noroeste 0 982.5 -0.4 60
2019-05-24 13:00:00 17.2 33 Noroeste 46 Noroeste 0 982.7 -0.3 63
2019-05-24 12:00:00 16.3 37 Noroeste 59 Noroeste 0 982.8 0.2 68
2019-05-24 11:00:00 14.3 25 Noroeste 38 Noroeste 0 982.9 0.7 82
2019-05-24 10:00:00 13.3 22 Noroeste 37 Noroeste 0 983 1 89
2019-05-24 09:00:00 12.8 24 Noroeste 32 Noroeste 0.6 982.6 0.6 90
2019-05-24 08:00:00 12.2 20 Noroeste 30 Noroeste 1.2 982.2 0.1 94
2019-05-24 07:00:00 12.2 18 Noroeste 36 Noroeste 4.4 982 0.2 94
2019-05-24 06:00:00 12.5 26 Noroeste 45 Noroeste 1.8 982 -0.5 92
2019-05-24 05:00:00 13.6 33 Noroeste 46 Oeste 0 982.1 -0.1 81
2019-05-24 04:00:00 13.6 25 Noroeste 40 Noroeste 0.4 981.8 -0.1 86
2019-05-24 03:00:00 13.7 21 Oeste 33 Oeste 0 982.5 0.8 86
2019-05-24 02:00:00 13.3 19 Noroeste 41 Noroeste 0.6 982.2 0.5 88
2019-05-24 01:00:00 14.1 25 Noroeste 39 Noroeste 0 981.9 1.2 76
2019-05-24 00:00:00 14.5 19 Noroeste 29 Noroeste 0.4 981.7 1.5 77
2019-05-23 23:00:00 14.6 29 Noroeste 40 Noroeste 0.4 981.7 2 79
2019-05-23 22:00:00 18.2 23 Oeste 30 Oeste 0 980.7 0.9 65
2019-05-23 21:00:00 20.7 9 Noroeste 15 Noroeste 0 980.2 0.7 61
2019-05-23 20:00:00 21 9 Norte 20 Norte 0 979.7 0 57
2019-05-23 19:00:00 21.6 6 Norte -- -- 0 979.8 0 54
2019-05-23 18:00:00 21.5 24 Noroeste 43 Oeste 0 979.5 -0.9 55
2019-05-23 17:00:00 26.2 4 Oeste 11 Noroeste 0 979.7 -1.5 32
2019-05-23 16:00:00 26 6 Nordeste 15 Noroeste 0 979.8 -1.8 33
2019-05-23 15:00:00 25 7 Sudoeste 14 Sur 0 980.4 -1.8 37
2019-05-23 14:00:00 24.7 4 Nordeste 15 Este 0 981.2 -1.3 35
2019-05-23 13:00:00 24.2 8 Este 18 Este 0 981.6 -1.1 34
2019-05-23 12:00:00 22.7 6 Este 14 Este 0 982.2 -0.4 42
2019-05-23 11:00:00 20.4 5 Este 14 Este 0 982.5 0.2 46
2019-05-23 10:00:00 18.3 3 Este 9 Norte 0 982.7 0.5 54
2019-05-23 09:00:00 14.8 6 Oeste 9 Sudoeste 0 982.6 0.6 71
2019-05-23 08:00:00 13.1 3 Sudeste 4 Sur 0 982.3 0.6 76
2019-05-23 07:00:00 10.5 3 Sur 7 Sudeste 0 982.2 0.4 81
2019-05-23 06:00:00 10.8 6 Sudeste 11 Sudeste 0 982 -0.1 81
2019-05-23 05:00:00 12.2 5 Sudoeste 6 Sudoeste 0 981.7 -0.5 79
2019-05-23 04:00:00 13.1 2 Noroeste 4 Noroeste 0 981.8 -0.3 75
2019-05-23 03:00:00 14.1 0 Calma 6 Sur 0 982.1 0 75
2019-05-23 02:00:00 14.9 3 Noroeste 9 Sudoeste 0 982.2 0.4 72
2019-05-23 01:00:00 15.8 3 Sudeste 10 Sudeste 0 982.1 0.8 68
2019-05-23 00:00:00 18.2 4 Norte 12 Norte 0 982.1 1.2 61
2019-05-22 23:00:00 19.4 9 Norte 18 Norte 0 981.8 1.3 54
2019-05-22 22:00:00 21.8 4 Oeste 8 Oeste 0 981.3 0.7 34
2019-05-22 21:00:00 24.6 4 Este 11 Norte 0 980.9 0.1 25
2019-05-22 20:00:00 25.7 9 Noroeste 23 Oeste 0 980.5 -0.7 20
2019-05-22 19:00:00 26.2 11 Noroeste 23 Noroeste 0 980.6 -1 16
2019-05-22 18:00:00 26.1 10 Noroeste 21 Noroeste 0 980.8 -1.5 21
2019-05-22 17:00:00 25.5 13 Noroeste 24 Noroeste 0 981.2 -1.6 20
2019-05-22 16:00:00 25.5 6 Noroeste 17 Este 0 981.6 -1.6 24
2019-05-22 15:00:00 24 5 Sudeste 15 Noroeste 0 982.3 -1.2 26
2019-05-22 14:00:00 22.7 6 Oeste 15 Sudoeste 0 982.8 -0.9 32
2019-05-22 13:00:00 21.6 4 Sur 17 Noroeste 0 983.2 -0.7 39
2019-05-22 12:00:00 19.1 6 Sudoeste 19 Oeste 0 983.5 -0.4 49
2019-05-22 11:00:00 17.8 7 Noroeste 18 Noroeste 0 983.7 -0.1 54
2019-05-22 10:00:00 15.6 10 Noroeste 20 Noroeste 0 983.9 0.5 63
2019-05-22 09:00:00 13.6 12 Noroeste 16 Noroeste 0 983.9 0.7 68
2019-05-22 08:00:00 11 3 Este 6 Sudeste 0 983.8 0.8 76
2019-05-22 07:00:00 8.6 0 Calma 7 Oeste 0 983.4 0.6 82
2019-05-22 06:00:00 8.8 6 Sudeste 12 Sudoeste 0 983.2 0.4 81
2019-05-22 05:00:00 10.4 2 Noroeste 17 Oeste 0 983 0.4 78
2019-05-22 04:00:00 11.2 8 Oeste 21 Noroeste 0 982.8 0 78
2019-05-22 03:00:00 12.3 19 Noroeste 35 Noroeste 0 982.8 0.3 74
2019-05-22 02:00:00 12.5 21 Noroeste 32 Oeste 0 982.6 0.1 75
2019-05-22 01:00:00 13.2 17 Oeste 30 Oeste 0 982.8 1.1 72
2019-05-22 00:00:00 14.1 18 Noroeste 26 Noroeste 0 982.5 1.6 68
2019-05-21 23:00:00 15.1 15 Oeste 21 Oeste 0 982.5 2.3 59
2019-05-21 22:00:00 16.6 11 Noroeste 31 Noroeste 0 981.7 1.7 52
2019-05-21 21:00:00 18.3 22 Noroeste 39 Noroeste 0 980.9 1.1 44
2019-05-21 20:00:00 20.2 29 Noroeste 44 Noroeste 0 980.2 0.3 39
2019-05-21 19:00:00 21.6 32 Noroeste 41 Noroeste 0 980 -0.2 33
2019-05-21 18:00:00 22.3 29 Noroeste 42 Noroeste 0 979.8 -0.7 24
2019-05-21 17:00:00 22.7 29 Noroeste 41 Noroeste 0 979.9 -1 29
2019-05-21 16:00:00 23.1 24 Noroeste 37 Noroeste 0 980.2 -1 28
2019-05-21 15:00:00 21.5 23 Noroeste 34 Noroeste 0 980.5 -1 35
2019-05-21 14:00:00 20.9 17 Oeste 31 Oeste 0 980.9 -0.9 35
2019-05-21 13:00:00 19.6 12 Noroeste 24 Oeste 0 981.2 -0.5 42
2019-05-21 12:00:00 18.2 10 Noroeste 29 Noroeste 0 981.5 -0.2 49
2019-05-21 11:00:00 16.4 9 Noroeste 21 Noroeste 0 981.8 0.4 55
2019-05-21 10:00:00 14.5 13 Noroeste 21 Noroeste 0 981.7 0.7 63
2019-05-21 09:00:00 12.1 14 Noroeste 20 Noroeste 0 981.7 1 73
2019-05-21 08:00:00 9.7 7 Oeste 12 Noroeste 0 981.4 1 82
2019-05-21 07:00:00 7.9 6 Noroeste 8 Noroeste 0 981 0.6 85
2019-05-21 06:00:00 8.5 8 Noroeste 14 Noroeste 0 980.7 0.3 83
2019-05-21 05:00:00 8.6 2 Norte 8 Noroeste 0 980.4 -0.1 82
2019-05-21 04:00:00 10 5 Noroeste 13 Noroeste 0 980.4 -0.1 77
2019-05-21 03:00:00 10.1 6 Noroeste 13 Sudoeste 0 980.4 0.4 79
2019-05-21 02:00:00 10.8 7 Oeste 21 Oeste 0 980.5 0.8 77
2019-05-21 01:00:00 11 9 Sudoeste 18 Oeste 0 980.5 1.6 76
2019-05-21 00:00:00 12.3 13 Oeste 18 Oeste 0 980 1.9 70